Genevia, Arkansas
Current Conditions -  °F | °C
As of 6:53 AM on Thursday 30 Oct 2014 (Local Time) from KLIT Reporting Station
Clear Clear  
Wind Chill: 47°   Ceiling: Unl
Heat Index: 47°   Visibility: 10mi
Dew Point: 43°   Wind: 3mph
Humidity: 86%   Direction: 250°WSW
Pressure: 30.18"   Gusts: NA
Location:  34.7066°N, 92.2297°W
Report Text: KLIT 301153Z 25003KT 10SM CLR 08/06 A3018 RMK AO2 SLP221 T00830061 10100 20078 53008
Loading
Personal Weather Stations






























Interactive Weather Map
Tropical Storm Tracking
New forecast layout! Learn more

10-Day Weather Forecast

Advertisements
Track Severe Weather on mobile